Riverside, CA (92501)

2:39 PM PDT on August 03, 2015 (GMT -0700)
Wood Streets | | Change Station
CLOSE
Current Station
Personal Weather Station
Location: Riverside, CA
Elevation: 833 ft
Nearby Weather Stations

Elev 833 ft 33.97 °N, 117.39 °W | Updated 39 seconds ago

Partly Cloudy
Partly Cloudy
98.4 °F
Feels Like 98 °F
N
3.7
Wind Variable Wind from SW

Today
High -- | Low -- °F
--% Chance of Precip.
Yesterday
High -- | Low -- °F
Precip. -- in
6:02 AM 7:48 PM
Waning Gibbous, 84% visible
Pressure 29.83 in
Visibility 10.0 miles
Clouds Mostly Cloudy 20000 ft
Heat Index 98 °F
Dew Point 58 °F
Humidity 26%
Rainfall 0.00 in
Snow Depth Not available.
UV 6 out of 12
Pollen 4.20 out of 12
Air Quality Not available.
Flu Activity Not available.
METAR KRAL 032053Z 29006KT 10SM BKN200 34/14 A2988 RMK AO2 SLP099 T03390144 56014

More Conditions Fewer Conditions

Pressure 29.83 in
Visibility 10.0 miles
Clouds Mostly Cloudy 20000 ft
Heat Index 98 °F
Dew Point 58 °F
Humidity 26%
Rainfall 0.00 in
Snow Depth Not available.
UV 6 out of 12
Pollen 4.20 out of 12
Air Quality Not available.
Flu Activity Not available.
METAR KRAL 032053Z 29006KT 10SM BKN200 34/14 A2988 RMK AO2 SLP099 T03390144 56014

More Conditions Fewer Conditions

10-Day Weather Forecast

×

Almanac

Astronomy

Aug. 03, 2015 Rise Set
Actual Time
Civil Twilight
Nautical Twilight
Astronomical Twilight
Moon
Length of Visible Light
Length of Day
Tomorrow will be .
, % of the Moon is Illuminated

Today's Extremes

State Highs State Lows

Community

WunderPhotos

Upload Photos

1,843,772 photos uploaded!

WunderBlogs® & News

Nearby

Air Quality

  Air Quality AQ Index Pollutant
Not available.

Snow Depth

Station Depth Elevation

Earthquake Activity

City Distance Mag. Time & Date
Minimum magnitude displayed is 2.5.

Coastal Water Temperatures

Place Temperature

Stations

Nearby Weather Stations

Station Location Temp. Windchill Dew Point Humidity Wind Precip. Elev Updated Type